sensor_id;sensor_type;location;lat;lon;timestamp;temperature;humidity
20489;DHT22;10403;54.092;12.122;2024-03-08T00:00:11;3.10;99.90
20489;DHT22;10403;54.092;12.122;2024-03-08T00:02:42;3.10;99.90
20489;DHT22;10403;54.092;12.122;2024-03-08T00:05:11;3.10;99.90
20489;DHT22;10403;54.092;12.122;2024-03-08T00:07:39;3.10;99.90
20489;DHT22;10403;54.092;12.122;2024-03-08T00:10:09;3.10;99.90
20489;DHT22;10403;54.092;12.122;2024-03-08T00:12:41;3.10;99.90
20489;DHT22;10403;54.092;12.122;2024-03-08T00:15:11;3.10;99.90
20489;DHT22;10403;54.092;12.122;2024-03-08T00:17:44;3.10;99.90
20489;DHT22;10403;54.092;12.122;2024-03-08T00:20:13;3.10;99.90
20489;DHT22;10403;54.092;12.122;2024-03-08T00:22:41;3.10;99.90
20489;DHT22;10403;54.092;12.122;2024-03-08T00:25:09;3.10;99.90
20489;DHT22;10403;54.092;12.122;2024-03-08T00:27:37;3.00;99.90
20489;DHT22;10403;54.092;12.122;2024-03-08T00:30:06;3.00;99.90
20489;DHT22;10403;54.092;12.122;2024-03-08T00:32:35;3.00;99.90
20489;DHT22;10403;54.092;12.122;2024-03-08T00:35:04;3.00;99.90
20489;DHT22;10403;54.092;12.122;2024-03-08T00:37:34;3.00;99.90
20489;DHT22;10403;54.092;12.122;2024-03-08T00:40:02;3.00;99.90
20489;DHT22;10403;54.092;12.122;2024-03-08T00:42:30;3.00;99.90
20489;DHT22;10403;54.092;12.122;2024-03-08T00:44:57;3.00;99.90
20489;DHT22;10403;54.092;12.122;2024-03-08T00:47:25;3.00;99.90
20489;DHT22;10403;54.092;12.122;2024-03-08T00:49:53;2.90;99.90
20489;DHT22;10403;54.092;12.122;2024-03-08T00:52:23;2.90;99.90
20489;DHT22;10403;54.092;12.122;2024-03-08T00:54:53;2.90;99.90
20489;DHT22;10403;54.092;12.122;2024-03-08T00:57:21;2.90;99.90
20489;DHT22;10403;54.092;12.122;2024-03-08T00:59:49;2.90;99.90
20489;DHT22;10403;54.092;12.122;2024-03-08T01:02:16;2.90;99.90
20489;DHT22;10403;54.092;12.122;2024-03-08T01:04:46;2.90;99.90
20489;DHT22;10403;54.092;12.122;2024-03-08T01:07:14;2.90;99.90
20489;DHT22;10403;54.092;12.122;2024-03-08T01:09:44;2.90;99.90
20489;DHT22;10403;54.092;12.122;2024-03-08T01:12:12;2.90;99.90
20489;DHT22;10403;54.092;12.122;2024-03-08T01:14:39;2.90;99.90
20489;DHT22;10403;54.092;12.122;2024-03-08T01:17:06;2.80;99.90
20489;DHT22;10403;54.092;12.122;2024-03-08T01:19:33;2.90;99.90
20489;DHT22;10403;54.092;12.122;2024-03-08T01:22:01;2.80;99.90
20489;DHT22;10403;54.092;12.122;2024-03-08T01:24:28;2.80;99.90
20489;DHT22;10403;54.092;12.122;2024-03-08T01:26:55;2.90;99.90
20489;DHT22;10403;54.092;12.122;2024-03-08T01:29:23;2.80;99.90
20489;DHT22;10403;54.092;12.122;2024-03-08T01:31:50;2.80;99.90
20489;DHT22;10403;54.092;12.122;2024-03-08T01:34:20;2.80;99.90
20489;DHT22;10403;54.092;12.122;2024-03-08T01:36:48;2.80;99.90
20489;DHT22;10403;54.092;12.122;2024-03-08T01:39:15;2.80;99.90
20489;DHT22;10403;54.092;12.122;2024-03-08T01:41:44;2.80;99.90
20489;DHT22;10403;54.092;12.122;2024-03-08T01:44:11;2.80;99.90
20489;DHT22;10403;54.092;12.122;2024-03-08T01:46:43;2.80;99.90
20489;DHT22;10403;54.092;12.122;2024-03-08T01:49:12;2.80;99.90
20489;DHT22;10403;54.092;12.122;2024-03-08T01:51:41;2.70;99.90
20489;DHT22;10403;54.092;12.122;2024-03-08T01:54:10;2.70;99.90
20489;DHT22;10403;54.092;12.122;2024-03-08T01:56:38;2.70;99.90
20489;DHT22;10403;54.092;12.122;2024-03-08T01:59:07;2.70;99.90
20489;DHT22;10403;54.092;12.122;2024-03-08T02:01:35;2.70;99.90
20489;DHT22;10403;54.092;12.122;2024-03-08T02:04:03;2.70;99.90
20489;DHT22;10403;54.092;12.122;2024-03-08T02:06:34;2.60;99.90
20489;DHT22;10403;54.092;12.122;2024-03-08T02:09:02;2.70;99.90
20489;DHT22;10403;54.092;12.122;2024-03-08T02:11:36;2.60;99.90
20489;DHT22;10403;54.092;12.122;2024-03-08T02:14:04;2.70;99.90
20489;DHT22;10403;54.092;12.122;2024-03-08T02:16:33;2.70;99.90
20489;DHT22;10403;54.092;12.122;2024-03-08T02:19:00;2.70;99.90
20489;DHT22;10403;54.092;12.122;2024-03-08T02:21:28;2.60;99.90
20489;DHT22;10403;54.092;12.122;2024-03-08T02:23:56;2.60;99.90
20489;DHT22;10403;54.092;12.122;2024-03-08T02:26:24;2.60;99.90
20489;DHT22;10403;54.092;12.122;2024-03-08T02:28:51;2.60;99.90
20489;DHT22;10403;54.092;12.122;2024-03-08T02:31:18;2.60;99.90
20489;DHT22;10403;54.092;12.122;2024-03-08T02:33:45;2.60;99.90
20489;DHT22;10403;54.092;12.122;2024-03-08T02:36:14;2.60;99.90
20489;DHT22;10403;54.092;12.122;2024-03-08T02:38:43;2.60;99.90
20489;DHT22;10403;54.092;12.122;2024-03-08T02:41:10;2.60;99.90
20489;DHT22;10403;54.092;12.122;2024-03-08T02:43:38;2.60;99.90
20489;DHT22;10403;54.092;12.122;2024-03-08T02:46:05;2.60;99.90
20489;DHT22;10403;54.092;12.122;2024-03-08T02:48:32;2.60;99.90
20489;DHT22;10403;54.092;12.122;2024-03-08T02:51:00;2.70;99.90
20489;DHT22;10403;54.092;12.122;2024-03-08T02:53:29;2.60;99.90
20489;DHT22;10403;54.092;12.122;2024-03-08T02:55:56;2.70;99.90
20489;DHT22;10403;54.092;12.122;2024-03-08T02:58:23;2.70;99.90
20489;DHT22;10403;54.092;12.122;2024-03-08T03:00:51;2.80;99.90
20489;DHT22;10403;54.092;12.122;2024-03-08T03:03:18;2.80;99.90
20489;DHT22;10403;54.092;12.122;2024-03-08T03:05:45;2.80;99.90
20489;DHT22;10403;54.092;12.122;2024-03-08T03:08:15;2.80;99.90
20489;DHT22;10403;54.092;12.122;2024-03-08T03:10:44;2.80;99.90
20489;DHT22;10403;54.092;12.122;2024-03-08T03:13:12;2.80;99.90
20489;DHT22;10403;54.092;12.122;2024-03-08T03:15:40;2.90;99.90
20489;DHT22;10403;54.092;12.122;2024-03-08T03:18:10;2.80;99.90
20489;DHT22;10403;54.092;12.122;2024-03-08T03:20:38;2.90;99.90
20489;DHT22;10403;54.092;12.122;2024-03-08T03:23:10;2.90;99.90
20489;DHT22;10403;54.092;12.122;2024-03-08T03:25:41;2.90;99.90
20489;DHT22;10403;54.092;12.122;2024-03-08T03:28:08;2.90;99.90
20489;DHT22;10403;54.092;12.122;2024-03-08T03:30:38;2.90;99.90
20489;DHT22;10403;54.092;12.122;2024-03-08T03:33:06;2.90;99.90
20489;DHT22;10403;54.092;12.122;2024-03-08T03:35:37;2.90;99.90
20489;DHT22;10403;54.092;12.122;2024-03-08T03:38:05;2.90;99.90
20489;DHT22;10403;54.092;12.122;2024-03-08T03:40:36;2.90;99.90
20489;DHT22;10403;54.092;12.122;2024-03-08T03:43:04;2.90;99.90
20489;DHT22;10403;54.092;12.122;2024-03-08T03:45:31;2.90;99.90
20489;DHT22;10403;54.092;12.122;2024-03-08T03:48:04;2.90;99.90
20489;DHT22;10403;54.092;12.122;2024-03-08T03:50:39;2.90;99.90
20489;DHT22;10403;54.092;12.122;2024-03-08T03:53:08;2.90;99.90
20489;DHT22;10403;54.092;12.122;2024-03-08T03:55:37;2.90;99.90
20489;DHT22;10403;54.092;12.122;2024-03-08T03:58:07;2.90;99.90
20489;DHT22;10403;54.092;12.122;2024-03-08T04:00:37;2.90;99.90
20489;DHT22;10403;54.092;12.122;2024-03-08T04:03:04;2.90;99.90
20489;DHT22;10403;54.092;12.122;2024-03-08T04:05:32;2.90;99.90
20489;DHT22;10403;54.092;12.122;2024-03-08T04:07:59;2.90;99.90
20489;DHT22;10403;54.092;12.122;2024-03-08T04:10:26;2.90;99.90
20489;DHT22;10403;54.092;12.122;2024-03-08T04:12:54;3.00;99.90
20489;DHT22;10403;54.092;12.122;2024-03-08T04:15:21;2.90;99.90
20489;DHT22;10403;54.092;12.122;2024-03-08T04:17:48;2.90;99.90
20489;DHT22;10403;54.092;12.122;2024-03-08T04:20:16;2.90;99.90
20489;DHT22;10403;54.092;12.122;2024-03-08T04:22:45;2.90;99.90
20489;DHT22;10403;54.092;12.122;2024-03-08T04:25:16;2.80;99.90
20489;DHT22;10403;54.092;12.122;2024-03-08T04:27:45;2.80;99.90
20489;DHT22;10403;54.092;12.122;2024-03-08T04:30:13;2.80;99.90
20489;DHT22;10403;54.092;12.122;2024-03-08T04:32:41;2.70;99.90
20489;DHT22;10403;54.092;12.122;2024-03-08T04:35:09;2.70;99.90
20489;DHT22;10403;54.092;12.122;2024-03-08T04:37:37;2.80;99.90
20489;DHT22;10403;54.092;12.122;2024-03-08T04:40:04;2.80;99.90
20489;DHT22;10403;54.092;12.122;2024-03-08T04:42:32;2.80;99.90
20489;DHT22;10403;54.092;12.122;2024-03-08T04:45:01;2.70;99.90
20489;DHT22;10403;54.092;12.122;2024-03-08T04:47:29;2.80;99.90
20489;DHT22;10403;54.092;12.122;2024-03-08T04:49:56;2.70;99.90
20489;DHT22;10403;54.092;12.122;2024-03-08T04:52:25;2.80;99.90
20489;DHT22;10403;54.092;12.122;2024-03-08T04:54:52;2.70;99.90
20489;DHT22;10403;54.092;12.122;2024-03-08T04:57:20;2.70;99.90
20489;DHT22;10403;54.092;12.122;2024-03-08T04:59:47;2.70;99.90
20489;DHT22;10403;54.092;12.122;2024-03-08T05:02:15;2.70;99.90
20489;DHT22;10403;54.092;12.122;2024-03-08T05:04:42;2.70;99.90
20489;DHT22;10403;54.092;12.122;2024-03-08T05:07:10;2.70;99.90
20489;DHT22;10403;54.092;12.122;2024-03-08T05:09:37;2.70;99.90
20489;DHT22;10403;54.092;12.122;2024-03-08T05:12:05;2.70;99.90
20489;DHT22;10403;54.092;12.122;2024-03-08T05:14:33;2.70;99.90
20489;DHT22;10403;54.092;12.122;2024-03-08T05:17:02;2.70;99.90
20489;DHT22;10403;54.092;12.122;2024-03-08T05:19:29;2.60;99.90
20489;DHT22;10403;54.092;12.122;2024-03-08T05:22:01;2.60;99.90
20489;DHT22;10403;54.092;12.122;2024-03-08T05:24:30;2.60;99.90
20489;DHT22;10403;54.092;12.122;2024-03-08T05:26:57;2.60;99.90
20489;DHT22;10403;54.092;12.122;2024-03-08T05:29:27;2.60;99.90
20489;DHT22;10403;54.092;12.122;2024-03-08T05:31:56;2.60;99.90
20489;DHT22;10403;54.092;12.122;2024-03-08T05:34:24;2.60;99.90
20489;DHT22;10403;54.092;12.122;2024-03-08T05:36:53;2.60;99.90
20489;DHT22;10403;54.092;12.122;2024-03-08T05:39:22;2.60;99.90
20489;DHT22;10403;54.092;12.122;2024-03-08T05:41:49;2.50;99.90
20489;DHT22;10403;54.092;12.122;2024-03-08T05:44:17;2.60;99.90
20489;DHT22;10403;54.092;12.122;2024-03-08T05:46:45;2.60;99.90
20489;DHT22;10403;54.092;12.122;2024-03-08T05:49:14;2.60;99.90
20489;DHT22;10403;54.092;12.122;2024-03-08T05:51:42;2.60;99.90
20489;DHT22;10403;54.092;12.122;2024-03-08T05:54:11;2.60;99.90
20489;DHT22;10403;54.092;12.122;2024-03-08T05:56:43;2.60;99.90
20489;DHT22;10403;54.092;12.122;2024-03-08T05:59:12;2.60;99.90
20489;DHT22;10403;54.092;12.122;2024-03-08T06:01:40;2.60;99.90
20489;DHT22;10403;54.092;12.122;2024-03-08T06:04:09;2.50;99.90
20489;DHT22;10403;54.092;12.122;2024-03-08T06:06:38;2.60;99.90
20489;DHT22;10403;54.092;12.122;2024-03-08T06:09:06;2.50;99.90
20489;DHT22;10403;54.092;12.122;2024-03-08T06:11:36;2.50;99.90
20489;DHT22;10403;54.092;12.122;2024-03-08T06:14:04;2.50;99.90
20489;DHT22;10403;54.092;12.122;2024-03-08T06:16:33;2.50;99.90
20489;DHT22;10403;54.092;12.122;2024-03-08T06:19:03;2.50;99.90
20489;DHT22;10403;54.092;12.122;2024-03-08T06:21:30;2.50;99.90
20489;DHT22;10403;54.092;12.122;2024-03-08T06:23:59;2.50;99.90
20489;DHT22;10403;54.092;12.122;2024-03-08T06:26:26;2.50;99.90
20489;DHT22;10403;54.092;12.122;2024-03-08T06:28:58;2.50;99.90
20489;DHT22;10403;54.092;12.122;2024-03-08T06:31:25;2.50;99.90
20489;DHT22;10403;54.092;12.122;2024-03-08T06:33:53;2.60;99.90
20489;DHT22;10403;54.092;12.122;2024-03-08T06:36:24;2.60;99.90
20489;DHT22;10403;54.092;12.122;2024-03-08T06:38:52;2.50;99.90
20489;DHT22;10403;54.092;12.122;2024-03-08T06:41:20;2.50;99.90
20489;DHT22;10403;54.092;12.122;2024-03-08T06:43:48;2.50;99.90
20489;DHT22;10403;54.092;12.122;2024-03-08T06:46:18;2.50;99.90
20489;DHT22;10403;54.092;12.122;2024-03-08T06:49:05;2.50;99.90
20489;DHT22;10403;54.092;12.122;2024-03-08T06:51:34;2.50;99.90
20489;DHT22;10403;54.092;12.122;2024-03-08T06:54:01;2.60;99.90
20489;DHT22;10403;54.092;12.122;2024-03-08T06:56:29;2.60;99.90
20489;DHT22;10403;54.092;12.122;2024-03-08T06:58:57;2.60;99.90
20489;DHT22;10403;54.092;12.122;2024-03-08T07:01:24;2.60;99.90
20489;DHT22;10403;54.092;12.122;2024-03-08T07:03:51;2.70;99.90
20489;DHT22;10403;54.092;12.122;2024-03-08T07:06:19;2.70;99.90
20489;DHT22;10403;54.092;12.122;2024-03-08T07:08:47;2.80;99.90
20489;DHT22;10403;54.092;12.122;2024-03-08T07:11:16;2.70;99.90
20489;DHT22;10403;54.092;12.122;2024-03-08T07:13:45;2.80;99.90
20489;DHT22;10403;54.092;12.122;2024-03-08T07:16:13;2.70;99.90
20489;DHT22;10403;54.092;12.122;2024-03-08T07:18:40;2.60;99.90
20489;DHT22;10403;54.092;12.122;2024-03-08T07:21:10;2.60;99.90
20489;DHT22;10403;54.092;12.122;2024-03-08T07:23:37;2.70;99.90
20489;DHT22;10403;54.092;12.122;2024-03-08T07:26:20;2.60;99.90
20489;DHT22;10403;54.092;12.122;2024-03-08T07:28:47;2.70;99.90
20489;DHT22;10403;54.092;12.122;2024-03-08T07:31:15;2.70;99.90
20489;DHT22;10403;54.092;12.122;2024-03-08T07:33:42;2.70;99.90
20489;DHT22;10403;54.092;12.122;2024-03-08T07:36:09;2.80;99.90
20489;DHT22;10403;54.092;12.122;2024-03-08T07:38:37;2.80;99.90
20489;DHT22;10403;54.092;12.122;2024-03-08T07:41:05;2.90;99.90
20489;DHT22;10403;54.092;12.122;2024-03-08T07:43:32;2.90;99.90
20489;DHT22;10403;54.092;12.122;2024-03-08T07:46:00;3.00;99.90
20489;DHT22;10403;54.092;12.122;2024-03-08T07:48:27;3.00;99.90
20489;DHT22;10403;54.092;12.122;2024-03-08T07:50:55;3.00;99.90
20489;DHT22;10403;54.092;12.122;2024-03-08T07:53:31;3.10;99.90
20489;DHT22;10403;54.092;12.122;2024-03-08T07:55:59;3.10;99.90
20489;DHT22;10403;54.092;12.122;2024-03-08T07:58:27;3.20;99.90
20489;DHT22;10403;54.092;12.122;2024-03-08T08:00:55;3.20;99.90
20489;DHT22;10403;54.092;12.122;2024-03-08T08:03:22;3.20;99.90
20489;DHT22;10403;54.092;12.122;2024-03-08T08:05:49;3.20;99.90
20489;DHT22;10403;54.092;12.122;2024-03-08T08:08:17;3.20;99.90
20489;DHT22;10403;54.092;12.122;2024-03-08T08:10:44;3.30;99.90
20489;DHT22;10403;54.092;12.122;2024-03-08T08:13:11;3.30;99.90
20489;DHT22;10403;54.092;12.122;2024-03-08T08:15:39;3.40;99.90
20489;DHT22;10403;54.092;12.122;2024-03-08T08:18:07;3.40;99.90
20489;DHT22;10403;54.092;12.122;2024-03-08T08:20:36;3.40;99.90
20489;DHT22;10403;54.092;12.122;2024-03-08T08:23:04;3.40;99.90
20489;DHT22;10403;54.092;12.122;2024-03-08T08:25:32;3.40;99.90
20489;DHT22;10403;54.092;12.122;2024-03-08T08:28:02;3.40;99.90
20489;DHT22;10403;54.092;12.122;2024-03-08T08:30:31;3.50;99.90
20489;DHT22;10403;54.092;12.122;2024-03-08T08:33:00;3.40;99.90
20489;DHT22;10403;54.092;12.122;2024-03-08T08:35:28;3.50;99.90
20489;DHT22;10403;54.092;12.122;2024-03-08T08:37:56;3.50;99.90
20489;DHT22;10403;54.092;12.122;2024-03-08T08:40:25;3.60;99.90
20489;DHT22;10403;54.092;12.122;2024-03-08T08:42:55;3.60;99.90
20489;DHT22;10403;54.092;12.122;2024-03-08T08:45:24;3.60;99.90
20489;DHT22;10403;54.092;12.122;2024-03-08T08:47:54;3.60;99.90
20489;DHT22;10403;54.092;12.122;2024-03-08T08:50:22;3.60;99.90
20489;DHT22;10403;54.092;12.122;2024-03-08T08:52:51;3.60;99.90
20489;DHT22;10403;54.092;12.122;2024-03-08T08:55:18;3.60;99.90
20489;DHT22;10403;54.092;12.122;2024-03-08T08:57:48;3.60;99.90
20489;DHT22;10403;54.092;12.122;2024-03-08T09:00:21;3.70;99.90
20489;DHT22;10403;54.092;12.122;2024-03-08T09:02:51;3.80;99.90
20489;DHT22;10403;54.092;12.122;2024-03-08T09:05:18;3.90;99.90
20489;DHT22;10403;54.092;12.122;2024-03-08T09:07:45;4.00;99.90
20489;DHT22;10403;54.092;12.122;2024-03-08T09:10:13;4.00;99.90
20489;DHT22;10403;54.092;12.122;2024-03-08T09:12:44;4.10;99.90
20489;DHT22;10403;54.092;12.122;2024-03-08T09:15:12;4.20;99.90
20489;DHT22;10403;54.092;12.122;2024-03-08T09:17:40;4.20;99.90
20489;DHT22;10403;54.092;12.122;2024-03-08T09:20:09;4.10;99.90
20489;DHT22;10403;54.092;12.122;2024-03-08T09:22:45;4.20;99.90
20489;DHT22;10403;54.092;12.122;2024-03-08T09:25:13;4.20;99.90
20489;DHT22;10403;54.092;12.122;2024-03-08T09:27:40;4.20;99.90
20489;DHT22;10403;54.092;12.122;2024-03-08T09:30:08;4.20;99.90
20489;DHT22;10403;54.092;12.122;2024-03-08T09:32:36;4.30;99.90
20489;DHT22;10403;54.092;12.122;2024-03-08T09:35:04;4.30;99.90
20489;DHT22;10403;54.092;12.122;2024-03-08T09:37:35;4.30;99.90
20489;DHT22;10403;54.092;12.122;2024-03-08T09:40:03;4.40;99.90
20489;DHT22;10403;54.092;12.122;2024-03-08T09:42:36;4.40;99.90
20489;DHT22;10403;54.092;12.122;2024-03-08T09:45:09;4.40;99.90
20489;DHT22;10403;54.092;12.122;2024-03-08T09:47:43;4.40;99.90
20489;DHT22;10403;54.092;12.122;2024-03-08T09:50:11;4.40;99.90
20489;DHT22;10403;54.092;12.122;2024-03-08T09:52:42;4.40;99.90
20489;DHT22;10403;54.092;12.122;2024-03-08T09:55:11;4.40;99.90
20489;DHT22;10403;54.092;12.122;2024-03-08T09:57:43;4.50;99.90
20489;DHT22;10403;54.092;12.122;2024-03-08T10:00:29;4.50;99.90
20489;DHT22;10403;54.092;12.122;2024-03-08T10:03:01;4.60;99.90
20489;DHT22;10403;54.092;12.122;2024-03-08T10:05:30;4.70;99.90
20489;DHT22;10403;54.092;12.122;2024-03-08T10:07:59;4.70;99.90
20489;DHT22;10403;54.092;12.122;2024-03-08T10:10:27;4.80;99.90
20489;DHT22;10403;54.092;12.122;2024-03-08T10:12:55;4.80;99.90
20489;DHT22;10403;54.092;12.122;2024-03-08T10:15:23;4.80;99.90
20489;DHT22;10403;54.092;12.122;2024-03-08T10:17:51;4.90;99.90
20489;DHT22;10403;54.092;12.122;2024-03-08T10:20:20;4.80;99.90
20489;DHT22;10403;54.092;12.122;2024-03-08T10:22:47;4.80;99.90
20489;DHT22;10403;54.092;12.122;2024-03-08T10:25:33;4.80;99.90
20489;DHT22;10403;54.092;12.122;2024-03-08T10:28:05;4.80;99.90
20489;DHT22;10403;54.092;12.122;2024-03-08T10:30:33;4.80;99.90
20489;DHT22;10403;54.092;12.122;2024-03-08T10:33:00;4.80;99.90
20489;DHT22;10403;54.092;12.122;2024-03-08T10:35:29;4.80;99.90
20489;DHT22;10403;54.092;12.122;2024-03-08T10:37:57;4.80;99.90
20489;DHT22;10403;54.092;12.122;2024-03-08T10:40:30;4.80;99.90
20489;DHT22;10403;54.092;12.122;2024-03-08T10:42:59;4.90;99.90
20489;DHT22;10403;54.092;12.122;2024-03-08T10:48:15;4.90;99.90
20489;DHT22;10403;54.092;12.122;2024-03-08T10:50:45;4.90;99.90
20489;DHT22;10403;54.092;12.122;2024-03-08T10:53:14;4.90;99.90
20489;DHT22;10403;54.092;12.122;2024-03-08T10:55:42;4.90;99.90
20489;DHT22;10403;54.092;12.122;2024-03-08T10:58:11;5.00;99.90
20489;DHT22;10403;54.092;12.122;2024-03-08T11:00:39;5.00;99.90
20489;DHT22;10403;54.092;12.122;2024-03-08T11:03:07;5.10;99.90
20489;DHT22;10403;54.092;12.122;2024-03-08T11:05:39;5.10;99.90
20489;DHT22;10403;54.092;12.122;2024-03-08T11:08:18;5.10;99.90
20489;DHT22;10403;54.092;12.122;2024-03-08T11:10:50;5.30;99.90
20489;DHT22;10403;54.092;12.122;2024-03-08T11:13:39;5.30;99.90
20489;DHT22;10403;54.092;12.122;2024-03-08T11:16:09;5.30;99.90
20489;DHT22;10403;54.092;12.122;2024-03-08T11:18:37;5.40;99.90
20489;DHT22;10403;54.092;12.122;2024-03-08T11:21:08;5.40;99.90
20489;DHT22;10403;54.092;12.122;2024-03-08T11:23:40;5.40;99.90
20489;DHT22;10403;54.092;12.122;2024-03-08T11:26:21;5.50;99.90
20489;DHT22;10403;54.092;12.122;2024-03-08T11:28:51;5.50;99.90
20489;DHT22;10403;54.092;12.122;2024-03-08T11:31:24;5.60;99.90
20489;DHT22;10403;54.092;12.122;2024-03-08T11:33:54;5.70;99.90
20489;DHT22;10403;54.092;12.122;2024-03-08T11:36:24;5.70;99.90
20489;DHT22;10403;54.092;12.122;2024-03-08T11:38:57;5.80;99.90
20489;DHT22;10403;54.092;12.122;2024-03-08T11:41:25;5.80;99.90
20489;DHT22;10403;54.092;12.122;2024-03-08T11:44:03;5.90;99.90
20489;DHT22;10403;54.092;12.122;2024-03-08T11:46:36;5.90;99.90
20489;DHT22;10403;54.092;12.122;2024-03-08T11:49:03;6.00;99.90
20489;DHT22;10403;54.092;12.122;2024-03-08T11:51:32;6.00;99.90
20489;DHT22;10403;54.092;12.122;2024-03-08T11:54:00;6.10;99.90
20489;DHT22;10403;54.092;12.122;2024-03-08T11:56:28;6.10;99.90
20489;DHT22;10403;54.092;12.122;2024-03-08T11:58:56;6.20;99.90
20489;DHT22;10403;54.092;12.122;2024-03-08T12:01:26;6.30;99.90
20489;DHT22;10403;54.092;12.122;2024-03-08T12:03:55;6.30;99.90
20489;DHT22;10403;54.092;12.122;2024-03-08T12:06:36;6.40;99.90
20489;DHT22;10403;54.092;12.122;2024-03-08T12:09:09;6.40;99.90
20489;DHT22;10403;54.092;12.122;2024-03-08T12:11:40;6.40;99.90
20489;DHT22;10403;54.092;12.122;2024-03-08T12:14:09;6.50;99.90
20489;DHT22;10403;54.092;12.122;2024-03-08T12:16:37;6.50;99.90
20489;DHT22;10403;54.092;12.122;2024-03-08T12:19:05;6.60;99.90
20489;DHT22;10403;54.092;12.122;2024-03-08T12:21:32;6.60;99.90
20489;DHT22;10403;54.092;12.122;2024-03-08T12:26:31;6.70;99.90
20489;DHT22;10403;54.092;12.122;2024-03-08T12:29:24;6.70;99.90
20489;DHT22;10403;54.092;12.122;2024-03-08T12:31:57;6.70;99.90
20489;DHT22;10403;54.092;12.122;2024-03-08T12:34:28;6.80;99.90
20489;DHT22;10403;54.092;12.122;2024-03-08T12:36:55;6.80;99.90
20489;DHT22;10403;54.092;12.122;2024-03-08T12:39:23;6.90;99.90
20489;DHT22;10403;54.092;12.122;2024-03-08T12:41:54;6.90;99.90
20489;DHT22;10403;54.092;12.122;2024-03-08T12:44:24;6.90;99.90
20489;DHT22;10403;54.092;12.122;2024-03-08T12:46:52;7.00;99.90
20489;DHT22;10403;54.092;12.122;2024-03-08T12:49:21;7.00;99.90
20489;DHT22;10403;54.092;12.122;2024-03-08T12:51:52;7.10;99.90
20489;DHT22;10403;54.092;12.122;2024-03-08T12:54:20;7.10;99.90
20489;DHT22;10403;54.092;12.122;2024-03-08T12:56:51;7.10;99.90
20489;DHT22;10403;54.092;12.122;2024-03-08T12:59:22;7.10;99.90
20489;DHT22;10403;54.092;12.122;2024-03-08T13:01:50;7.20;99.90
20489;DHT22;10403;54.092;12.122;2024-03-08T13:04:20;7.20;99.90
20489;DHT22;10403;54.092;12.122;2024-03-08T13:06:48;7.20;99.90
20489;DHT22;10403;54.092;12.122;2024-03-08T13:09:21;7.20;99.90
20489;DHT22;10403;54.092;12.122;2024-03-08T13:11:49;7.20;99.90
20489;DHT22;10403;54.092;12.122;2024-03-08T13:14:17;7.30;99.90
20489;DHT22;10403;54.092;12.122;2024-03-08T13:16:44;7.30;99.90
20489;DHT22;10403;54.092;12.122;2024-03-08T13:19:15;7.30;99.90
20489;DHT22;10403;54.092;12.122;2024-03-08T13:21:43;7.30;99.90
20489;DHT22;10403;54.092;12.122;2024-03-08T13:24:16;7.30;99.90
20489;DHT22;10403;54.092;12.122;2024-03-08T13:26:43;7.30;99.90
20489;DHT22;10403;54.092;12.122;2024-03-08T13:29:11;7.40;99.90
20489;DHT22;10403;54.092;12.122;2024-03-08T13:31:38;7.40;99.90
20489;DHT22;10403;54.092;12.122;2024-03-08T13:34:06;7.40;99.90
20489;DHT22;10403;54.092;12.122;2024-03-08T13:36:35;7.40;99.90
20489;DHT22;10403;54.092;12.122;2024-03-08T13:39:09;7.50;99.90
20489;DHT22;10403;54.092;12.122;2024-03-08T13:41:42;7.50;99.90
20489;DHT22;10403;54.092;12.122;2024-03-08T13:44:11;7.50;99.90
20489;DHT22;10403;54.092;12.122;2024-03-08T13:46:38;7.50;99.90
20489;DHT22;10403;54.092;12.122;2024-03-08T13:49:06;7.50;99.90
20489;DHT22;10403;54.092;12.122;2024-03-08T13:51:35;7.60;99.90
20489;DHT22;10403;54.092;12.122;2024-03-08T13:54:03;7.60;99.90
20489;DHT22;10403;54.092;12.122;2024-03-08T13:56:33;7.60;99.90
20489;DHT22;10403;54.092;12.122;2024-03-08T13:59:02;7.60;99.90
20489;DHT22;10403;54.092;12.122;2024-03-08T14:01:29;7.60;99.90
20489;DHT22;10403;54.092;12.122;2024-03-08T14:03:57;7.60;99.90
20489;DHT22;10403;54.092;12.122;2024-03-08T14:06:24;7.70;99.90
20489;DHT22;10403;54.092;12.122;2024-03-08T14:08:57;7.70;99.90
20489;DHT22;10403;54.092;12.122;2024-03-08T14:11:24;7.70;99.90
20489;DHT22;10403;54.092;12.122;2024-03-08T14:13:52;7.70;99.90
20489;DHT22;10403;54.092;12.122;2024-03-08T14:16:20;7.80;99.90
20489;DHT22;10403;54.092;12.122;2024-03-08T14:18:48;7.80;99.90
20489;DHT22;10403;54.092;12.122;2024-03-08T14:21:15;7.80;99.90
20489;DHT22;10403;54.092;12.122;2024-03-08T14:23:44;7.80;99.90
20489;DHT22;10403;54.092;12.122;2024-03-08T14:26:11;7.80;99.90
20489;DHT22;10403;54.092;12.122;2024-03-08T14:28:39;7.90;99.90
20489;DHT22;10403;54.092;12.122;2024-03-08T14:31:06;7.90;99.90
20489;DHT22;10403;54.092;12.122;2024-03-08T14:33:38;7.90;99.90
20489;DHT22;10403;54.092;12.122;2024-03-08T14:36:07;7.90;99.90
20489;DHT22;10403;54.092;12.122;2024-03-08T14:38:34;7.90;99.90
20489;DHT22;10403;54.092;12.122;2024-03-08T14:41:02;7.90;99.90
20489;DHT22;10403;54.092;12.122;2024-03-08T14:43:31;7.90;99.80
20489;DHT22;10403;54.092;12.122;2024-03-08T14:45:59;8.00;99.60
20489;DHT22;10403;54.092;12.122;2024-03-08T14:48:26;8.00;99.60
20489;DHT22;10403;54.092;12.122;2024-03-08T14:50:54;8.00;99.70
20489;DHT22;10403;54.092;12.122;2024-03-08T14:53:21;8.00;99.70
20489;DHT22;10403;54.092;12.122;2024-03-08T14:55:48;8.00;99.40
20489;DHT22;10403;54.092;12.122;2024-03-08T14:58:16;8.00;99.30
20489;DHT22;10403;54.092;12.122;2024-03-08T15:00:44;8.00;99.00
20489;DHT22;10403;54.092;12.122;2024-03-08T15:03:13;8.00;98.60
20489;DHT22;10403;54.092;12.122;2024-03-08T15:05:43;8.00;98.60
20489;DHT22;10403;54.092;12.122;2024-03-08T15:08:14;8.00;98.50
20489;DHT22;10403;54.092;12.122;2024-03-08T15:10:47;8.00;98.40
20489;DHT22;10403;54.092;12.122;2024-03-08T15:13:21;8.00;98.30
20489;DHT22;10403;54.092;12.122;2024-03-08T15:15:50;8.00;98.10
20489;DHT22;10403;54.092;12.122;2024-03-08T15:18:25;8.00;98.10
20489;DHT22;10403;54.092;12.122;2024-03-08T15:20:55;8.00;97.90
20489;DHT22;10403;54.092;12.122;2024-03-08T15:23:22;8.00;98.00
20489;DHT22;10403;54.092;12.122;2024-03-08T15:25:49;8.00;98.20
20489;DHT22;10403;54.092;12.122;2024-03-08T15:28:17;8.00;98.40
20489;DHT22;10403;54.092;12.122;2024-03-08T15:30:47;8.00;98.60
20489;DHT22;10403;54.092;12.122;2024-03-08T15:33:21;8.00;98.90
20489;DHT22;10403;54.092;12.122;2024-03-08T15:35:56;7.90;99.20
20489;DHT22;10403;54.092;12.122;2024-03-08T15:38:30;7.90;99.70
20489;DHT22;10403;54.092;12.122;2024-03-08T15:40:58;7.90;99.90
20489;DHT22;10403;54.092;12.122;2024-03-08T15:43:26;7.90;99.90
20489;DHT22;10403;54.092;12.122;2024-03-08T15:45:53;7.90;99.90